Iver Bright — ZDKU4 — position and weather

sailwx.info

Track history (hours):
 
Tides and Currents Weather Stations Pressure Air Temp Water Temp Dewpoint Dewpoint Depression Visibility Wind Speed Wind Dir Waves Ship Positions

Iver Bright

Last reported at 2017-Feb-21 01:04 UTC. Time now 2017-Feb-25 00:39 UTC.
Position N 36°02' W 004°53'.

Length 111 m; draft 5.2 m.

Type: Tanker. MMSI: 236111811.

Date/timePositionNaut miles runAvg speedWind from/ knotsBaromVisibWave heightAir tempDewpointWater temp
2017-Feb-21 01:04N 36°02' W 004°53'4 3.9
2017-Feb-21 00:09N 36°02' W 004°57'2 3.8
2017-Feb-20 23:33N 36°02' W 004°60'5 4.5
2017-Feb-20 22:29N 36°02' W 005°06'4 4.6
2017-Feb-20 21:33N 36°01' W 005°11'4 4.2
2017-Feb-20 20:33N 36°01' W 005°16'4 3.6
2017-Feb-20 19:33N 35°59' W 005°21'3 3.0
2017-Feb-20 18:33N 35°59' W 005°24'3 2.8
2017-Feb-20 17:33N 35°58' W 005°27'3 2.9
2017-Feb-20 16:33N 35°57' W 005°31'3 3.2
2017-Feb-20 15:33N 35°56' W 005°35'3 2.7
2017-Feb-20 14:33N 35°55' W 005°38'3 2.9
2017-Feb-20 13:33N 35°55' W 005°41'4 3.6
2017-Feb-20 12:32N 35°55' W 005°46'4 4.0
2017-Feb-20 11:28N 35°55' W 005°51'6 5.3
2017-Feb-20 10:21N 35°54' W 005°58'13 0.3
2017-Feb-18 18:33N 35°57' W 005°43'9 9.5
2017-Feb-18 17:33N 35°59' W 005°32'9 9.1
2017-Feb-18 16:33N 36°02' W 005°21'1010.0
2017-Feb-18 15:33N 36°04' W 005°09'  
2017-Feb-14 23:21N 36°40' E 013°41'810.5
2017-Feb-14 22:33N 36°37' E 013°51'1110.7
2017-Feb-14 21:28N 36°34' E 014°05'1010.8
2017-Feb-14 20:33N 36°31' E 014°17'1110.6
2017-Feb-14 19:33N 36°27' E 014°29'1010.3
2017-Feb-14 18:33N 36°26' E 014°42'  
Track history (hours):
 
Tides and Currents Weather Stations Pressure Air Temp Water Temp Dewpoint Dewpoint Depression Visibility Wind Speed Wind Dir Waves Ship Positions

Iver Bright

Last reported at 2017-Feb-21 01:04 UTC. Time now 2017-Feb-25 00:39 UTC.
Position N 36°02' W 004°53'.

Length 111 m; draft 5.2 m.

Type: Tanker. MMSI: 236111811.

Date/timePositionNaut miles runAvg speedWind from/ knotsBaromVisibWave heightAir tempDewpointWater temp
2017-Feb-21 01:04N 36°02' W 004°53'4 3.9
2017-Feb-21 00:09N 36°02' W 004°57'2 3.8
2017-Feb-20 23:33N 36°02' W 004°60'5 4.5
2017-Feb-20 22:29N 36°02' W 005°06'4 4.6
2017-Feb-20 21:33N 36°01' W 005°11'4 4.2
2017-Feb-20 20:33N 36°01' W 005°16'4 3.6
2017-Feb-20 19:33N 35°59' W 005°21'3 3.0
2017-Feb-20 18:33N 35°59' W 005°24'3 2.8
2017-Feb-20 17:33N 35°58' W 005°27'3 2.9
2017-Feb-20 16:33N 35°57' W 005°31'3 3.2
2017-Feb-20 15:33N 35°56' W 005°35'3 2.7
2017-Feb-20 14:33N 35°55' W 005°38'3 2.9
2017-Feb-20 13:33N 35°55' W 005°41'4 3.6
2017-Feb-20 12:32N 35°55' W 005°46'4 4.0
2017-Feb-20 11:28N 35°55' W 005°51'6 5.3
2017-Feb-20 10:21N 35°54' W 005°58'13 0.3
2017-Feb-18 18:33N 35°57' W 005°43'9 9.5
2017-Feb-18 17:33N 35°59' W 005°32'9 9.1
2017-Feb-18 16:33N 36°02' W 005°21'1010.0
2017-Feb-18 15:33N 36°04' W 005°09'  
2017-Feb-14 23:21N 36°40' E 013°41'810.5
2017-Feb-14 22:33N 36°37' E 013°51'1110.7
2017-Feb-14 21:28N 36°34' E 014°05'1010.8
2017-Feb-14 20:33N 36°31' E 014°17'1110.6
2017-Feb-14 19:33N 36°27' E 014°29'1010.3
2017-Feb-14 18:33N 36°26' E 014°42'  

Dump ship's entire track history